Time;durP1;ratioP1;P1;durP2;ratioP2;P2;SDS_P1;SDS_P2;PMS_P1;PMS_P2;Temp;Humidity;BMP_temperature;BMP_pressure;BME280_temperature;BME280_humidity;BME280_pressure;Samples;Min_cycle;Max_cycle;Signal;HPM_P1;HPM_P2
2022/01/27 00:05:25;;;;;;;25.57;14.73;;;4.90;99.90;;;;;;5074349;28;20659;-57
2022/01/27 00:08:17;;;;;;;29.47;14.33;;;4.90;99.90;;;;;;5084534;28;20648;-57
2022/01/27 00:13:14;;;;;;;20.40;12.63;;;4.80;99.90;;;;;;5078872;28;20205;-56
2022/01/27 00:15:47;;;;;;;24.77;13.63;;;4.90;99.90;;;;;;5074084;28;20209;-56
2022/01/27 00:18:18;;;;;;;21.67;12.83;;;4.90;99.90;;;;;;5077004;28;20200;-57
2022/01/27 00:20:46;;;;;;;26.43;15.13;;;4.80;99.90;;;;;;5080228;28;20203;-57
2022/01/27 00:23:14;;;;;;;27.07;14.23;;;4.90;99.90;;;;;;5077988;28;20314;-57
2022/01/27 00:25:42;;;;;;;22.70;13.50;;;4.80;99.90;;;;;;5085732;28;20193;-56
2022/01/27 00:28:09;;;;;;;24.37;13.47;;;4.80;99.90;;;;;;5083787;28;20726;-57
2022/01/27 00:30:38;;;;;;;22.37;13.17;;;4.80;99.90;;;;;;5083823;28;20224;-56
2022/01/27 00:33:06;;;;;;;25.27;13.23;;;4.70;99.90;;;;;;5085309;28;20223;-55
2022/01/27 00:35:33;;;;;;;22.77;13.33;;;4.70;99.90;;;;;;5079672;28;20215;-58
2022/01/27 00:38:01;;;;;;;24.90;15.20;;;4.70;99.90;;;;;;5084875;28;20201;-56
2022/01/27 00:40:28;;;;;;;27.53;14.20;;;4.60;99.90;;;;;;5083462;28;20601;-58
2022/01/27 00:42:56;;;;;;;26.97;14.27;;;4.60;99.90;;;;;;5085593;28;20268;-58
2022/01/27 00:45:24;;;;;;;23.80;14.60;;;4.60;99.90;;;;;;5061411;28;20268;-57
2022/01/27 00:47:51;;;;;;;30.33;14.80;;;4.60;99.90;;;;;;5083983;28;20268;-57
2022/01/27 00:50:19;;;;;;;25.97;14.77;;;4.60;99.90;;;;;;5079096;28;20260;-58
2022/01/27 00:52:51;;;;;;;26.47;15.30;;;4.60;99.90;;;;;;5085457;28;20609;-58
2022/01/27 00:55:18;;;;;;;22.27;13.67;;;4.60;99.90;;;;;;5080567;28;20732;-54
2022/01/27 01:00:26;;;;;;;26.37;14.67;;;4.60;99.90;;;;;;5084849;28;20238;-56
2022/01/27 01:08:12;;;;;;;25.30;13.43;;;4.60;99.90;;;;;;5080091;28;20656;-58
2022/01/27 01:16:18;;;;;;;26.07;13.67;;;4.60;99.90;;;;;;5084785;28;20605;-57
2022/01/27 01:18:59;;;;;;;25.27;14.13;;;4.60;99.90;;;;;;5065687;28;20719;-55
2022/01/27 01:32:43;;;;;;;24.70;15.67;;;4.60;99.90;;;;;;5083479;28;20204;-57
2022/01/27 01:35:11;;;;;;;27.37;14.20;;;4.60;99.90;;;;;;5082125;28;20235;-56
2022/01/27 01:37:40;;;;;;;30.17;15.33;;;4.60;99.90;;;;;;5081109;28;20313;-55
2022/01/27 01:40:12;;;;;;;26.83;14.13;;;4.60;99.90;;;;;;5068062;28;20669;-56
2022/01/27 01:42:39;;;;;;;26.30;13.37;;;4.60;99.90;;;;;;5070168;28;20456;-58
2022/01/27 01:45:13;;;;;;;23.70;12.90;;;4.60;99.90;;;;;;5062934;28;20584;-56
2022/01/27 01:47:40;;;;;;;25.33;14.03;;;4.60;99.90;;;;;;5084364;28;20777;-56
2022/01/27 01:50:09;;;;;;;29.50;14.70;;;4.60;99.90;;;;;;5080227;28;20295;-56
2022/01/27 01:52:36;;;;;;;28.40;14.67;;;4.60;99.90;;;;;;5082559;28;20732;-56
2022/01/27 01:55:05;;;;;;;24.40;14.07;;;4.70;99.90;;;;;;5062905;28;20298;-58
2022/01/27 01:57:31;;;;;;;23.57;14.27;;;4.60;99.90;;;;;;5080188;28;20329;-56
2022/01/27 01:59:59;;;;;;;27.57;13.33;;;4.60;99.90;;;;;;5082308;28;20570;-56
2022/01/27 02:02:26;;;;;;;26.17;13.20;;;4.60;99.90;;;;;;5079461;28;20206;-56
2022/01/27 02:04:55;;;;;;;22.13;13.13;;;4.70;99.90;;;;;;5059284;28;20713;-56
2022/01/27 02:07:39;;;;;;;26.87;14.83;;;4.70;99.90;;;;;;5083609;28;20216;-56
2022/01/27 02:10:27;;;;;;;26.13;14.17;;;4.70;99.90;;;;;;5083912;28;20226;-56
2022/01/27 02:17:58;;;;;;;25.50;14.77;;;4.70;99.90;;;;;;5081041;28;20206;-55
2022/01/27 02:18:29;;;;;;;23.43;13.40;;;4.80;99.90;;;;;;5079800;28;20284;-56
2022/01/27 02:20:56;;;;;;;27.10;14.40;;;4.80;99.90;;;;;;5079858;28;20199;-56
2022/01/27 02:23:23;;;;;;;26.33;14.30;;;4.80;99.90;;;;;;5076300;28;20208;-56
2022/01/27 02:25:50;;;;;;;23.80;15.07;;;4.80;99.90;;;;;;5075765;28;20202;-56
2022/01/27 02:28:17;;;;;;;27.10;14.63;;;4.80;99.90;;;;;;5078089;28;20585;-56
2022/01/27 02:30:46;;;;;;;22.67;14.73;;;4.80;99.90;;;;;;5084914;28;20344;-56
2022/01/27 02:33:13;;;;;;;24.17;13.53;;;4.80;99.90;;;;;;5083201;28;20727;-56
2022/01/27 02:35:41;;;;;;;26.63;13.77;;;4.80;99.90;;;;;;5080307;28;20234;-57
2022/01/27 02:38:08;;;;;;;27.10;15.23;;;4.80;99.90;;;;;;5082928;28;20203;-57
2022/01/27 02:40:53;;;;;;;24.10;14.37;;;4.90;99.90;;;;;;5053748;28;20200;-57
2022/01/27 02:43:20;;;;;;;26.03;13.70;;;4.80;99.90;;;;;;5088672;28;20253;-55
2022/01/27 02:46:06;;;;;;;25.10;14.57;;;4.90;99.90;;;;;;5085297;28;20203;-58
2022/01/27 02:48:33;;;;;;;23.47;13.40;;;4.80;99.90;;;;;;5086673;28;20615;-58
2022/01/27 02:51:00;;;;;;;26.80;14.57;;;4.80;99.90;;;;;;5083441;28;20701;-56
2022/01/27 02:53:27;;;;;;;30.60;14.27;;;4.90;99.90;;;;;;5085518;28;20199;-58
2022/01/27 02:55:54;;;;;;;23.57;13.17;;;4.90;99.90;;;;;;5086086;28;20210;-57
2022/01/27 02:58:21;;;;;;;25.07;15.40;;;4.80;99.90;;;;;;5085415;28;20305;-57
2022/01/27 03:00:48;;;;;;;25.73;13.73;;;4.80;99.90;;;;;;5088697;28;20200;-58
2022/01/27 03:03:14;;;;;;;23.53;13.87;;;4.80;99.90;;;;;;5071962;28;20591;-57
2022/01/27 03:05:42;;;;;;;24.47;13.30;;;4.80;99.90;;;;;;5083242;28;20191;-57
2022/01/27 03:08:08;;;;;;;22.93;13.53;;;4.80;99.90;;;;;;5087574;28;20283;-54
2022/01/27 03:10:43;;;;;;;23.87;13.50;;;4.70;99.90;;;;;;5090544;28;20637;-57
2022/01/27 03:13:10;;;;;;;22.10;12.93;;;4.70;99.90;;;;;;5088465;28;20277;-56
2022/01/27 03:15:36;;;;;;;22.07;13.60;;;4.70;99.90;;;;;;5084678;28;20207;-56
2022/01/27 03:18:03;;;;;;;22.70;13.27;;;4.70;99.90;;;;;;5063784;28;20278;-54
2022/01/27 03:20:34;;;;;;;23.07;12.57;;;4.70;99.90;;;;;;5088218;28;20286;-56
2022/01/27 03:23:02;;;;;;;26.33;13.10;;;4.70;99.90;;;;;;5087534;28;20550;-56
2022/01/27 03:25:29;;;;;;;26.13;13.60;;;4.70;99.90;;;;;;5085380;28;20713;-58
2022/01/27 03:27:56;;;;;;;26.77;13.73;;;4.70;99.90;;;;;;5082076;28;20229;-56
2022/01/27 03:30:23;;;;;;;24.97;13.73;;;4.80;99.90;;;;;;5085658;28;20206;-59
2022/01/27 03:32:50;;;;;;;22.10;13.23;;;4.70;99.90;;;;;;5083448;28;20196;-57
2022/01/27 03:35:16;;;;;;;22.87;13.07;;;4.80;99.90;;;;;;5074185;28;20300;-60
2022/01/27 03:37:43;;;;;;;22.73;12.87;;;4.80;99.90;;;;;;5071099;28;20208;-58
2022/01/27 03:40:10;;;;;;;27.47;13.87;;;4.80;99.90;;;;;;5086059;28;20265;-56
2022/01/27 03:42:45;;;;;;;25.07;13.37;;;4.80;99.90;;;;;;5089670;28;20197;-56
2022/01/27 03:45:12;;;;;;;21.23;13.07;;;4.80;99.90;;;;;;5077561;28;20302;-58
2022/01/27 03:47:39;;;;;;;25.33;12.77;;;4.80;99.90;;;;;;5081768;28;20195;-58
2022/01/27 03:50:06;;;;;;;24.80;12.37;;;4.80;99.90;;;;;;5068801;28;20199;-55
2022/01/27 03:52:33;;;;;;;21.63;12.77;;;4.80;99.90;;;;;;5084711;28;20672;-55
2022/01/27 03:55:00;;;;;;;19.50;11.63;;;4.80;99.90;;;;;;5078744;28;20239;-58
2022/01/27 03:57:26;;;;;;;23.63;12.90;;;4.80;99.90;;;;;;5078657;28;20279;-58
2022/01/27 03:59:53;;;;;;;20.97;12.67;;;4.80;99.90;;;;;;5096898;28;20229;-57
2022/01/27 04:02:20;;;;;;;21.97;13.27;;;4.70;99.90;;;;;;5093753;28;20556;-57
2022/01/27 04:04:48;;;;;;;22.27;12.13;;;4.70;99.90;;;;;;5094319;28;20219;-56
2022/01/27 04:07:15;;;;;;;22.67;13.13;;;4.80;99.90;;;;;;5099385;28;20225;-58
2022/01/27 04:09:42;;;;;;;21.77;11.87;;;4.80;99.90;;;;;;5097921;28;20265;-57
2022/01/27 04:12:09;;;;;;;19.97;11.73;;;4.80;99.90;;;;;;5081398;28;20543;-58
2022/01/27 04:14:36;;;;;;;19.57;11.77;;;4.80;99.90;;;;;;5098526;28;20272;-57
2022/01/27 04:17:04;;;;;;;20.87;10.93;;;4.80;99.90;;;;;;5095709;28;20253;-58
2022/01/27 04:19:31;;;;;;;26.67;12.70;;;4.80;99.90;;;;;;5096861;28;20203;-57
2022/01/27 04:21:57;;;;;;;24.20;11.40;;;4.80;99.90;;;;;;5100217;28;20203;-57
2022/01/27 04:24:24;;;;;;;23.30;12.23;;;4.80;99.90;;;;;;5094786;28;20231;-57
2022/01/27 04:26:59;;;;;;;22.67;12.17;;;4.80;99.90;;;;;;5099376;28;20199;-57
2022/01/27 04:29:27;;;;;;;19.73;12.10;;;4.80;99.90;;;;;;5094963;28;20252;-58
2022/01/27 04:31:54;;;;;;;21.97;12.07;;;4.80;99.90;;;;;;5094763;28;20286;-57
2022/01/27 04:34:23;;;;;;;22.00;11.70;;;4.80;99.90;;;;;;5095009;28;20230;-56
2022/01/27 04:36:50;;;;;;;20.40;11.13;;;4.80;99.90;;;;;;5097523;28;20252;-57
2022/01/27 04:39:27;;;;;;;22.23;12.57;;;4.80;99.90;;;;;;5079365;28;20203;-57
2022/01/27 04:42:02;;;;;;;18.90;11.20;;;4.80;99.90;;;;;;5098874;28;20206;-59
2022/01/27 04:44:42;;;;;;;21.00;11.70;;;4.80;99.90;;;;;;5096820;28;20208;-57
2022/01/27 04:47:18;;;;;;;24.80;11.70;;;4.80;99.90;;;;;;5077255;28;20190;-57
2022/01/27 04:49:46;;;;;;;24.43;11.63;;;4.80;99.90;;;;;;5094555;28;20242;-59
2022/01/27 04:52:13;;;;;;;21.97;11.97;;;4.80;99.90;;;;;;5097014;28;20201;-58
2022/01/27 04:57:16;;;;;;;20.47;10.00;;;4.80;99.90;;;;;;5093317;28;20263;-57
2022/01/27 04:59:44;;;;;;;19.07;10.57;;;4.90;99.90;;;;;;5079924;28;20239;-56
2022/01/27 05:02:20;;;;;;;21.47;10.53;;;4.90;99.90;;;;;;5065541;28;20238;-57
2022/01/27 05:04:50;;;;;;;20.50;9.93;;;4.90;99.90;;;;;;5080618;28;20219;-54
2022/01/27 05:07:32;;;;;;;24.20;10.90;;;5.00;99.90;;;;;;5084880;28;20200;-57
2022/01/27 05:10:08;;;;;;;19.73;11.13;;;5.00;99.90;;;;;;5066316;28;20224;-55
2022/01/27 05:12:42;;;;;;;20.00;10.17;;;5.00;99.90;;;;;;5084097;28;20196;-57
2022/01/27 05:15:10;;;;;;;19.47;10.60;;;5.10;99.90;;;;;;5084308;28;20203;-57
2022/01/27 05:17:37;;;;;;;25.97;10.63;;;5.10;99.90;;;;;;5083192;28;20433;-57
2022/01/27 05:20:04;;;;;;;18.10;10.03;;;5.10;99.90;;;;;;5080020;28;20746;-57
2022/01/27 05:22:34;;;;;;;19.37;10.77;;;5.20;99.90;;;;;;5069662;28;20208;-57
2022/01/27 05:25:01;;;;;;;20.77;10.57;;;5.30;99.90;;;;;;5082969;28;20226;-58
2022/01/27 05:27:28;;;;;;;21.97;11.57;;;5.30;99.90;;;;;;5082828;28;20619;-62
2022/01/27 05:30:00;;;;;;;23.73;11.33;;;5.40;99.90;;;;;;5077987;28;20235;-57
2022/01/27 05:32:27;;;;;;;25.43;11.33;;;5.40;99.90;;;;;;5084685;28;20204;-57
2022/01/27 05:34:53;;;;;;;19.07;10.60;;;5.40;99.90;;;;;;5078580;28;20678;-57
2022/01/27 05:37:20;;;;;;;21.80;10.20;;;5.50;99.90;;;;;;5052637;28;20198;-57
2022/01/27 05:39:47;;;;;;;23.63;10.77;;;5.50;99.90;;;;;;5085581;28;20288;-57
2022/01/27 05:42:14;;;;;;;17.10;9.80;;;5.50;99.90;;;;;;5085780;28;20737;-57
2022/01/27 05:44:41;;;;;;;17.80;10.07;;;5.60;99.90;;;;;;5083740;28;20222;-55
2022/01/27 05:47:07;;;;;;;18.33;10.37;;;5.70;99.90;;;;;;5080886;28;20339;-58
2022/01/27 05:49:34;;;;;;;20.57;10.33;;;5.70;99.90;;;;;;5081032;28;20204;-58
2022/01/27 05:52:01;;;;;;;17.90;10.17;;;5.70;99.90;;;;;;5085490;28;20192;-57
2022/01/27 05:54:28;;;;;;;20.43;9.40;;;5.80;99.90;;;;;;5082618;28;20284;-57
2022/01/27 05:56:55;;;;;;;18.27;9.63;;;5.80;99.90;;;;;;5082575;28;20314;-56
2022/01/27 05:59:22;;;;;;;19.47;9.60;;;5.80;99.90;;;;;;5080427;28;20283;-57
2022/01/27 06:01:49;;;;;;;17.40;9.33;;;5.80;99.90;;;;;;5081918;28;20201;-55
2022/01/27 06:04:16;;;;;;;18.83;9.67;;;5.80;99.90;;;;;;5079816;28;20211;-55
2022/01/27 06:06:44;;;;;;;18.77;9.60;;;5.80;99.90;;;;;;5084845;28;20203;-56
2022/01/27 06:09:11;;;;;;;16.40;9.70;;;5.80;99.90;;;;;;5083167;28;20221;-56
2022/01/27 06:11:38;;;;;;;17.83;9.53;;;5.80;99.90;;;;;;5084582;28;20266;-56
2022/01/27 06:14:05;;;;;;;22.40;10.07;;;5.80;99.90;;;;;;5067411;28;20282;-56
2022/01/27 06:16:33;;;;;;;13.87;8.17;;;5.90;99.90;;;;;;5065985;28;20212;-55
2022/01/27 06:19:02;;;;;;;17.33;9.40;;;5.90;99.90;;;;;;5081898;28;20203;-56
2022/01/27 06:21:30;;;;;;;21.60;8.87;;;5.90;99.90;;;;;;5068150;28;20205;-58
2022/01/27 06:23:57;;;;;;;17.17;9.33;;;6.00;99.90;;;;;;5079020;28;20302;-57
2022/01/27 06:26:24;;;;;;;17.40;9.20;;;6.00;99.90;;;;;;5079476;28;20216;-57
2022/01/27 06:28:51;;;;;;;20.03;10.50;;;6.00;99.90;;;;;;5061352;28;20328;-60
2022/01/27 06:31:17;;;;;;;18.60;9.93;;;6.10;99.90;;;;;;5080807;28;20246;-58
2022/01/27 06:33:45;;;;;;;16.50;8.87;;;6.10;99.90;;;;;;5083220;28;20201;-57
2022/01/27 06:36:12;;;;;;;20.07;9.53;;;6.10;99.90;;;;;;5073581;28;20232;-58
2022/01/27 06:38:38;;;;;;;16.67;9.20;;;6.10;99.90;;;;;;5078519;28;20202;-57
2022/01/27 06:41:05;;;;;;;19.47;9.50;;;6.20;99.90;;;;;;5084133;28;20320;-57
2022/01/27 06:43:32;;;;;;;22.57;9.73;;;6.10;99.90;;;;;;5084402;28;20202;-57
2022/01/27 06:45:59;;;;;;;19.40;9.87;;;6.20;99.90;;;;;;5081421;28;20266;-57
2022/01/27 06:48:26;;;;;;;21.73;9.97;;;6.20;99.90;;;;;;5080704;28;20197;-57
2022/01/27 06:50:55;;;;;;;18.30;10.00;;;6.20;99.90;;;;;;5083159;28;20216;-57
2022/01/27 06:53:22;;;;;;;14.63;9.37;;;6.20;99.90;;;;;;5082301;28;20616;-55
2022/01/27 06:55:50;;;;;;;14.83;9.30;;;6.20;99.90;;;;;;5082157;28;20622;-55
2022/01/27 06:58:17;;;;;;;19.03;9.47;;;6.30;99.90;;;;;;5083686;28;20258;-56
2022/01/27 07:00:44;;;;;;;19.13;9.77;;;6.30;99.90;;;;;;5077602;28;20213;-56
2022/01/27 07:03:11;;;;;;;18.73;10.10;;;6.30;99.90;;;;;;5082630;28;20673;-56
2022/01/27 07:05:39;;;;;;;16.37;9.23;;;6.30;99.90;;;;;;5079840;28;20213;-56
2022/01/27 07:08:06;;;;;;;20.40;9.37;;;6.30;99.90;;;;;;5082999;28;20644;-56
2022/01/27 07:10:35;;;;;;;17.07;9.43;;;6.30;99.90;;;;;;5083492;28;20789;-58
2022/01/27 07:13:02;;;;;;;20.50;9.80;;;6.30;99.90;;;;;;5081958;28;20223;-56
2022/01/27 07:15:30;;;;;;;18.87;10.10;;;6.30;99.90;;;;;;5079362;28;20240;-56
2022/01/27 07:17:57;;;;;;;19.20;9.73;;;6.40;99.90;;;;;;5080096;28;20213;-56
2022/01/27 07:20:23;;;;;;;20.40;9.43;;;6.40;99.90;;;;;;5074166;28;20636;-55
2022/01/27 07:22:50;;;;;;;17.23;8.93;;;6.40;99.90;;;;;;5058571;28;20217;-59
2022/01/27 07:25:17;;;;;;;18.03;9.40;;;6.40;99.90;;;;;;5072187;28;20245;-55
2022/01/27 07:27:44;;;;;;;15.93;9.07;;;6.50;99.90;;;;;;5059357;28;20231;-56
2022/01/27 07:30:12;;;;;;;15.47;8.30;;;6.50;99.90;;;;;;5053809;28;20201;-55
2022/01/27 07:32:39;;;;;;;17.70;9.70;;;6.50;99.90;;;;;;5076057;28;22147;-55
2022/01/27 07:35:06;;;;;;;18.33;9.20;;;6.50;99.90;;;;;;5051295;28;20661;-57
2022/01/27 07:37:33;;;;;;;16.53;9.50;;;6.40;99.90;;;;;;5072427;28;20241;-58
2022/01/27 07:40:00;;;;;;;17.13;9.83;;;6.40;99.90;;;;;;5071872;28;20223;-57
2022/01/27 07:42:27;;;;;;;23.67;9.63;;;6.30;99.90;;;;;;5072289;28;20210;-57
2022/01/27 07:44:53;;;;;;;17.30;9.30;;;6.20;99.90;;;;;;5058275;28;20636;-56
2022/01/27 07:47:20;;;;;;;19.90;9.77;;;6.10;99.90;;;;;;5073994;28;20307;-56
2022/01/27 07:49:47;;;;;;;19.93;10.43;;;6.10;99.90;;;;;;5074107;28;20282;-58
2022/01/27 07:52:14;;;;;;;18.17;9.80;;;6.10;99.90;;;;;;5075924;28;20718;-58
2022/01/27 07:54:40;;;;;;;18.97;9.80;;;6.00;99.90;;;;;;5059153;28;20858;-56
2022/01/27 07:57:07;;;;;;;19.70;10.80;;;6.00;99.90;;;;;;5072829;28;20758;-56
2022/01/27 07:59:34;;;;;;;28.03;10.27;;;6.00;99.90;;;;;;5077672;28;20787;-56
2022/01/27 08:02:01;;;;;;;22.17;10.50;;;6.00;99.90;;;;;;5080106;28;20284;-57
2022/01/27 08:04:28;;;;;;;21.73;9.97;;;6.00;99.90;;;;;;5073795;28;20206;-57
2022/01/27 08:06:56;;;;;;;24.03;10.07;;;5.90;99.90;;;;;;5075390;28;20321;-56
2022/01/27 08:09:23;;;;;;;27.50;10.50;;;5.90;99.90;;;;;;5080969;28;20228;-57
2022/01/27 08:11:51;;;;;;;19.23;8.90;;;6.00;99.90;;;;;;5080948;28;20600;-57
2022/01/27 08:14:18;;;;;;;17.80;9.97;;;6.00;99.90;;;;;;5081050;28;20239;-57
2022/01/27 08:16:46;;;;;;;21.07;10.50;;;6.00;99.90;;;;;;5075391;28;20299;-57
2022/01/27 08:19:12;;;;;;;18.67;10.07;;;5.90;99.90;;;;;;5080066;28;20209;-62
2022/01/27 08:21:39;;;;;;;22.07;11.20;;;5.90;99.90;;;;;;5078216;28;20198;-58
2022/01/27 08:24:06;;;;;;;18.30;10.87;;;5.90;99.90;;;;;;5079769;28;20303;-57
2022/01/27 08:26:41;;;;;;;22.37;9.57;;;6.00;99.90;;;;;;5076750;28;20680;-57
2022/01/27 08:32:31;;;;;;;18.67;10.87;;;6.00;99.90;;;;;;5080935;28;20720;-57
2022/01/27 08:34:35;;;;;;;24.10;9.63;;;6.00;99.90;;;;;;5071261;28;20196;-56
2022/01/27 08:37:04;;;;;;;19.97;10.47;;;6.00;99.90;;;;;;5070262;28;20955;-58
2022/01/27 08:39:31;;;;;;;19.33;9.13;;;6.10;99.90;;;;;;5083968;28;20277;-57
2022/01/27 08:41:59;;;;;;;20.77;9.97;;;6.00;99.90;;;;;;5064284;28;20205;-58
2022/01/27 08:44:27;;;;;;;17.80;9.47;;;6.10;99.90;;;;;;5076707;28;20232;-57
2022/01/27 08:46:54;;;;;;;20.20;10.07;;;6.20;99.90;;;;;;5077838;28;20223;-57
2022/01/27 08:49:24;;;;;;;16.93;9.20;;;6.10;99.90;;;;;;5078151;28;20593;-57
2022/01/27 08:51:55;;;;;;;21.63;10.10;;;6.20;99.90;;;;;;5077249;28;20197;-58
2022/01/27 08:54:23;;;;;;;18.47;9.00;;;6.20;99.90;;;;;;5077280;28;20200;-57
2022/01/27 08:56:52;;;;;;;17.23;9.53;;;6.20;99.90;;;;;;5068752;28;20279;-57
2022/01/27 08:59:19;;;;;;;16.83;9.57;;;6.20;99.90;;;;;;5079783;28;20239;-58
2022/01/27 09:01:46;;;;;;;18.27;10.37;;;6.30;99.90;;;;;;5079654;28;20410;-57
2022/01/27 09:04:14;;;;;;;18.33;9.83;;;6.30;99.90;;;;;;5064233;28;20508;-57
2022/01/27 09:06:41;;;;;;;17.70;9.40;;;6.30;99.90;;;;;;5084511;28;20677;-57
2022/01/27 09:09:07;;;;;;;19.30;9.87;;;6.30;99.90;;;;;;5079964;28;20237;-57
2022/01/27 09:11:35;;;;;;;20.67;9.57;;;6.30;99.90;;;;;;5083035;28;20609;-57
2022/01/27 09:14:03;;;;;;;15.93;9.40;;;6.30;99.90;;;;;;5079825;28;20682;-57
2022/01/27 09:16:31;;;;;;;15.20;8.67;;;6.40;99.90;;;;;;5078699;28;20315;-57
2022/01/27 09:19:19;;;;;;;16.23;8.87;;;6.40;99.90;;;;;;5077703;28;20703;-56
2022/01/27 09:21:46;;;;;;;13.80;8.37;;;6.40;99.90;;;;;;5078595;28;20211;-57
2022/01/27 09:24:17;;;;;;;14.07;9.00;;;6.40;99.90;;;;;;5061612;28;20285;-57
2022/01/27 09:29:15;;;;;;;18.23;8.60;;;6.40;99.90;;;;;;5073084;28;20227;-57
2022/01/27 09:31:42;;;;;;;13.33;8.83;;;6.50;99.90;;;;;;5079571;28;20705;-57
2022/01/27 09:34:29;;;;;;;12.23;8.03;;;6.50;99.90;;;;;;5074106;28;20208;-57
2022/01/27 09:36:57;;;;;;;16.80;9.40;;;6.50;99.90;;;;;;5074591;28;20229;-56
2022/01/27 09:39:24;;;;;;;15.27;8.70;;;6.50;99.90;;;;;;5074767;28;20211;-56
2022/01/27 09:41:54;;;;;;;14.23;8.13;;;6.50;99.90;;;;;;5080164;28;20940;-55
2022/01/27 09:44:27;;;;;;;14.90;8.27;;;6.60;99.90;;;;;;5080528;28;20210;-56
2022/01/27 09:47:00;;;;;;;15.47;7.90;;;6.60;99.90;;;;;;5077479;28;20313;-57
2022/01/27 09:49:34;;;;;;;13.77;8.47;;;6.60;99.90;;;;;;5068924;28;20310;-56
2022/01/27 09:52:02;;;;;;;14.33;8.50;;;6.60;99.90;;;;;;5078808;28;20614;-57
2022/01/27 09:54:29;;;;;;;13.27;8.07;;;6.60;99.90;;;;;;5063102;28;20198;-57
2022/01/27 09:56:56;;;;;;;12.63;8.33;;;6.70;99.90;;;;;;5078895;28;20242;-58
2022/01/27 09:59:23;;;;;;;10.80;7.87;;;6.70;99.90;;;;;;5072664;28;20687;-57
2022/01/27 10:02:02;;;;;;;12.47;8.30;;;6.70;99.90;;;;;;5076329;28;20949;-57
2022/01/27 10:04:46;;;;;;;14.47;8.10;;;6.70;99.90;;;;;;5079583;28;20718;-60
2022/01/27 10:07:15;;;;;;;12.10;7.80;;;6.70;99.90;;;;;;5076707;28;20218;-56
2022/01/27 10:10:07;;;;;;;15.17;7.90;;;6.70;99.90;;;;;;5075462;28;20310;-57
2022/01/27 10:12:42;;;;;;;12.20;7.13;;;6.80;99.90;;;;;;5076303;28;20281;-57
2022/01/27 10:15:13;;;;;;;11.03;6.57;;;6.80;99.90;;;;;;5078563;28;20247;-57
2022/01/27 10:18:14;;;;;;;11.27;7.10;;;6.80;99.90;;;;;;5082130;28;20851;-57
2022/01/27 10:21:01;;;;;;;11.93;7.03;;;6.80;99.90;;;;;;5077481;28;20211;-56
2022/01/27 10:23:33;;;;;;;10.57;6.30;;;6.90;99.90;;;;;;5076345;28;20203;-56
2022/01/27 10:26:13;;;;;;;13.93;7.00;;;6.90;99.90;;;;;;5079786;28;20639;-57
2022/01/27 10:31:19;;;;;;;12.00;6.37;;;6.90;99.90;;;;;;5078556;28;20262;-56
2022/01/27 10:33:52;;;;;;;9.07;6.13;;;6.90;99.90;;;;;;5077727;28;20618;-57
2022/01/27 10:36:26;;;;;;;13.60;6.57;;;7.00;99.90;;;;;;5077363;28;20217;-57
2022/01/27 10:38:58;;;;;;;8.47;6.33;;;7.00;99.90;;;;;;5061271;28;20234;-57
2022/01/27 10:41:26;;;;;;;11.07;6.10;;;7.10;99.90;;;;;;5078319;28;20237;-57
2022/01/27 10:44:16;;;;;;;9.50;5.83;;;7.20;99.90;;;;;;5074838;28;20235;-57
2022/01/27 10:47:30;;;;;;;11.63;6.43;;;7.20;99.90;;;;;;5074918;28;20222;-58
2022/01/27 10:50:01;;;;;;;12.23;6.27;;;7.20;99.90;;;;;;5008235;28;20290;-58
2022/01/27 10:55:12;;;;;;;10.50;6.90;;;7.30;99.90;;;;;;5014921;28;20287;-56
2022/01/27 10:57:39;;;;;;;12.87;6.30;;;7.40;99.90;;;;;;5017359;28;20325;-57
2022/01/27 11:00:11;;;;;;;9.83;6.40;;;7.30;99.90;;;;;;5006262;28;20296;-58
2022/01/27 11:02:58;;;;;;;11.67;5.70;;;7.40;99.90;;;;;;5015790;28;20284;-57
2022/01/27 11:05:33;;;;;;;14.50;6.57;;;7.40;99.90;;;;;;5014193;28;20588;-58
2022/01/27 11:08:03;;;;;;;10.10;6.43;;;7.50;99.90;;;;;;5018456;28;20219;-60
2022/01/27 11:10:30;;;;;;;14.20;7.40;;;7.60;99.90;;;;;;5014875;28;20443;-59
2022/01/27 11:12:59;;;;;;;16.80;7.43;;;7.60;99.90;;;;;;5016091;28;20749;-56
2022/01/27 11:15:26;;;;;;;10.30;6.97;;;7.70;99.90;;;;;;5015171;28;20290;-58
2022/01/27 11:17:54;;;;;;;19.23;6.87;;;7.60;99.90;;;;;;5017702;28;20203;-58
2022/01/27 11:20:57;;;;;;;15.70;6.23;;;7.60;99.90;;;;;;5042005;28;20292;-57
2022/01/27 11:26:10;;;;;;;12.77;6.33;;;7.70;99.90;;;;;;5076084;28;20320;-56
2022/01/27 11:28:42;;;;;;;12.67;6.77;;;7.80;99.90;;;;;;5075493;28;20202;-57
2022/01/27 11:31:38;;;;;;;12.37;6.23;;;7.80;99.90;;;;;;5079866;28;20203;-59
2022/01/27 11:34:07;;;;;;;8.87;5.77;;;7.80;99.90;;;;;;5077486;28;20756;-57
2022/01/27 11:36:36;;;;;;;11.87;6.63;;;7.80;99.90;;;;;;5084175;28;20214;-58
2022/01/27 11:39:11;;;;;;;8.27;5.87;;;7.90;99.90;;;;;;5075892;28;20287;-59
2022/01/27 11:41:47;;;;;;;14.87;6.97;;;7.90;99.90;;;;;;5076968;28;20227;-58
2022/01/27 11:44:32;;;;;;;12.80;5.83;;;7.90;99.90;;;;;;5075164;28;20209;-56
2022/01/27 11:47:12;;;;;;;12.07;5.80;;;7.90;99.90;;;;;;5076085;28;20214;-57
2022/01/27 11:50:22;;;;;;;9.90;5.63;;;7.90;99.90;;;;;;5065463;28;21994;-57
2022/01/27 11:52:52;;;;;;;11.30;5.43;;;7.90;99.90;;;;;;5062468;28;20327;-57
2022/01/27 11:55:25;;;;;;;12.00;5.53;;;7.90;99.90;;;;;;5071210;28;20251;-56
2022/01/27 11:58:00;;;;;;;8.40;4.63;;;8.00;99.90;;;;;;5077551;28;20238;-57
2022/01/27 12:00:30;;;;;;;8.47;5.40;;;8.00;99.90;;;;;;5065606;28;20341;-58
2022/01/27 12:03:04;;;;;;;9.87;4.67;;;8.00;99.90;;;;;;5066459;28;20206;-55
2022/01/27 12:05:36;;;;;;;8.77;5.03;;;8.00;99.90;;;;;;5069008;28;20211;-59
2022/01/27 12:08:09;;;;;;;10.53;5.40;;;8.00;99.90;;;;;;5077575;28;20232;-58
2022/01/27 12:10:50;;;;;;;11.27;6.00;;;8.00;99.90;;;;;;5072908;28;20235;-57
2022/01/27 12:13:27;;;;;;;10.97;5.57;;;8.10;99.90;;;;;;5074971;28;20236;-59
2022/01/27 12:19:06;;;;;;;14.47;5.90;;;8.00;99.90;;;;;;5076500;28;20228;-57
2022/01/27 12:21:56;;;;;;;14.67;5.53;;;8.10;99.90;;;;;;5063342;28;20214;-57
2022/01/27 12:24:27;;;;;;;10.73;5.47;;;8.10;99.90;;;;;;5062428;28;20302;-57
2022/01/27 12:27:01;;;;;;;15.47;6.17;;;8.10;99.90;;;;;;5073150;28;20304;-59
2022/01/27 12:29:41;;;;;;;14.70;5.77;;;8.10;99.90;;;;;;5076675;28;20967;-59
2022/01/27 12:32:17;;;;;;;15.30;6.07;;;8.10;99.90;;;;;;5058839;28;20255;-57
2022/01/27 12:34:51;;;;;;;11.13;5.87;;;8.10;99.90;;;;;;5073166;28;20304;-57
2022/01/27 12:37:24;;;;;;;16.53;5.67;;;8.20;99.90;;;;;;5078764;28;22237;-57
2022/01/27 12:40:02;;;;;;;14.00;5.57;;;8.20;99.90;;;;;;5077056;28;20203;-58
2022/01/27 12:42:35;;;;;;;15.00;5.40;;;8.20;99.90;;;;;;5068846;28;20210;-55
2022/01/27 12:45:12;;;;;;;11.50;4.93;;;8.30;99.90;;;;;;5073169;28;20284;-59
2022/01/27 12:47:49;;;;;;;9.03;4.53;;;8.30;99.90;;;;;;5075085;28;20745;-59
2022/01/27 12:50:20;;;;;;;15.80;5.93;;;8.40;99.90;;;;;;5072645;28;20657;-56
2022/01/27 12:52:52;;;;;;;18.17;5.57;;;8.40;99.90;;;;;;5076564;28;20210;-59
2022/01/27 12:55:39;;;;;;;11.63;5.17;;;8.40;99.90;;;;;;5072205;28;20564;-58
2022/01/27 12:58:09;;;;;;;11.07;5.00;;;8.50;99.90;;;;;;5065928;28;20235;-57
2022/01/27 13:00:39;;;;;;;12.83;4.93;;;8.50;99.90;;;;;;5055024;28;20212;-58
2022/01/27 13:03:06;;;;;;;10.83;4.47;;;8.50;99.90;;;;;;5057161;28;20316;-58
2022/01/27 13:05:38;;;;;;;9.70;5.20;;;8.60;99.90;;;;;;5061997;28;20663;-58
2022/01/27 13:08:10;;;;;;;7.50;4.47;;;8.50;99.90;;;;;;5063831;28;20267;-58
2022/01/27 13:10:39;;;;;;;14.27;5.20;;;8.50;99.90;;;;;;5075822;28;20633;-57
2022/01/27 13:13:14;;;;;;;7.37;4.43;;;8.60;99.90;;;;;;5079449;28;20528;-58
2022/01/27 13:15:42;;;;;;;15.27;4.63;;;8.70;99.90;;;;;;5080515;28;20286;-57
2022/01/27 13:18:16;;;;;;;12.37;5.30;;;8.70;99.90;;;;;;5074683;28;21031;-56
2022/01/27 13:20:48;;;;;;;10.77;4.83;;;8.70;99.90;;;;;;5079845;28;20208;-58
2022/01/27 13:23:30;;;;;;;13.10;4.47;;;8.70;99.90;;;;;;5079128;28;20766;-57
2022/01/27 13:26:03;;;;;;;9.37;4.13;;;8.80;99.90;;;;;;5078267;28;20316;-56
2022/01/27 13:28:37;;;;;;;13.43;5.23;;;8.80;99.90;;;;;;5078871;28;20235;-58
2022/01/27 13:31:07;;;;;;;10.37;4.70;;;8.80;99.90;;;;;;5075678;28;20776;-56
2022/01/27 13:33:36;;;;;;;13.17;4.73;;;8.90;99.90;;;;;;5074981;28;20212;-57
2022/01/27 13:36:03;;;;;;;9.10;4.77;;;9.00;99.90;;;;;;5066015;28;20209;-57
2022/01/27 13:38:38;;;;;;;13.67;4.80;;;9.00;99.90;;;;;;5070929;28;20214;-59
2022/01/27 13:41:20;;;;;;;9.00;4.40;;;9.00;99.90;;;;;;5070843;28;20212;-59
2022/01/27 13:44:03;;;;;;;12.87;4.70;;;9.00;99.90;;;;;;5072057;28;20200;-57
2022/01/27 13:46:45;;;;;;;11.97;4.47;;;9.00;99.90;;;;;;5058564;28;20222;-58
2022/01/27 13:49:30;;;;;;;12.37;5.40;;;9.10;99.90;;;;;;5056562;28;20614;-59
2022/01/27 13:52:16;;;;;;;9.10;4.70;;;9.10;99.90;;;;;;5071102;28;20195;-58
2022/01/27 13:54:46;;;;;;;9.33;5.00;;;9.10;99.90;;;;;;5079170;28;20240;-64